Landon, Ohio
Current Conditions -  °F | °C
As of 9:04 PM on Sunday 25 Jan 2015 (Local Time) from KHAO Reporting Station
Light Rain Light Rain  
Wind Chill: 28°   Ceiling: 1500
Heat Index: 36°   Visibility: 4mi
Dew Point: 34°   Wind: 10mph
Humidity: 93%   Direction: 20°NNE
Pressure: 29.73"   Gusts: NA
Location:  39.3164°N, 84.2265°W
Report Text: KHAO 260204Z AUTO 02009KT 4SM -RA BR FEW006 BKN015 OVC022 02/01 A2973 RMK AO2 P0000 T00220011
Loading
Personal Weather Stations






























Interactive Weather Map New forecast layout! Learn more

10-Day Weather Forecast

Advertisements
Track Severe Weather on mobile